createdAt,value
2023-02-14T00:54:56.868Z,22.13
2023-02-14T00:55:57.830Z,22.36
2023-02-14T00:56:57.827Z,22.43
2023-02-14T00:57:57.814Z,22.47
2023-02-14T00:58:57.811Z,22.50
2023-02-14T00:59:57.808Z,22.52
2023-02-14T01:00:58.213Z,22.53
2023-02-14T01:01:57.782Z,22.54
2023-02-14T01:02:57.874Z,22.55
2023-02-14T01:03:57.762Z,22.56
2023-02-14T01:04:57.752Z,22.56
2023-02-14T01:05:57.742Z,22.57
2023-02-14T01:06:57.749Z,22.57
2023-02-14T01:07:57.731Z,22.58
2023-02-14T01:08:57.712Z,22.57
2023-02-14T01:09:57.702Z,22.57
2023-02-14T01:10:58.075Z,22.57
2023-02-14T01:11:57.685Z,22.57
2023-02-14T01:12:57.682Z,22.57
2023-02-14T01:13:57.669Z,22.58
2023-02-14T01:14:57.660Z,22.58
2023-02-14T01:15:57.659Z,22.58
2023-02-14T01:16:57.638Z,22.58
2023-02-14T01:17:57.629Z,22.58
2023-02-14T01:18:57.628Z,22.58
2023-02-14T01:19:57.620Z,22.58
2023-02-14T01:20:58.085Z,22.57
2023-02-14T01:21:57.606Z,22.57
2023-02-14T01:22:57.591Z,22.58
2023-02-14T01:23:57.578Z,22.58
2023-02-14T01:24:57.566Z,22.58
2023-02-14T01:25:57.561Z,22.57
2023-02-14T01:26:57.580Z,22.58
2023-02-14T01:27:57.549Z,22.58
2023-02-14T01:28:57.544Z,22.57
2023-02-14T01:29:57.556Z,22.58
2023-02-14T01:30:57.950Z,22.58
2023-02-14T01:31:57.569Z,22.58
2023-02-14T01:32:57.526Z,22.57
2023-02-14T01:33:57.488Z,22.57
2023-02-14T01:34:57.485Z,22.57
2023-02-14T01:35:57.471Z,22.57
2023-02-14T01:36:57.467Z,22.57
2023-02-14T01:37:57.453Z,22.56
2023-02-14T01:38:57.442Z,22.56
2023-02-14T01:39:57.454Z,22.56
2023-02-14T01:40:57.781Z,22.56
2023-02-14T01:41:57.420Z,22.56
2023-02-14T01:42:57.449Z,22.57
2023-02-14T01:43:57.436Z,22.58
2023-02-14T01:44:57.398Z,22.58
2023-02-14T01:45:57.537Z,22.57
2023-02-14T01:46:57.371Z,22.57
2023-02-14T01:47:57.370Z,22.58
2023-02-14T01:48:57.358Z,22.57
2023-02-14T01:49:57.345Z,22.58
2023-02-14T01:50:57.723Z,22.58
2023-02-14T01:51:57.346Z,22.58
2023-02-14T01:52:57.331Z,22.57
2023-02-14T01:53:57.314Z,22.56
2023-02-14T01:54:57.306Z,22.56
2023-02-14T01:55:57.292Z,22.57
2023-02-14T01:56:57.289Z,22.56
2023-02-14T01:57:57.281Z,22.57
2023-02-14T01:58:57.302Z,22.57
2023-02-14T01:59:57.260Z,22.56
2023-02-14T02:00:57.611Z,22.57
2023-02-14T02:01:57.292Z,22.57
2023-02-14T02:02:57.241Z,22.56
2023-02-14T02:03:57.225Z,22.56
2023-02-14T02:04:57.215Z,22.56
2023-02-14T02:05:57.225Z,22.57
2023-02-14T02:06:57.215Z,22.57
2023-02-14T02:07:57.227Z,22.57
2023-02-14T02:08:57.176Z,22.58
2023-02-14T02:09:57.168Z,22.57
2023-02-14T02:10:57.399Z,22.57
2023-02-14T02:11:57.151Z,22.57
2023-02-14T02:12:57.150Z,22.57
2023-02-14T02:13:57.147Z,22.57
2023-02-14T02:14:57.149Z,22.58
2023-02-14T02:15:57.116Z,22.57
2023-02-14T02:16:57.208Z,22.58
2023-02-14T02:17:57.095Z,22.57
2023-02-14T02:18:57.116Z,22.58
2023-02-14T02:19:57.081Z,22.57
2023-02-14T02:20:57.284Z,22.57
2023-02-14T02:21:57.067Z,22.58
2023-02-14T02:22:57.056Z,22.58
2023-02-14T02:23:57.042Z,22.58
2023-02-14T02:24:57.035Z,22.58
2023-02-14T02:25:57.040Z,22.57
2023-02-14T02:26:57.018Z,22.57
2023-02-14T02:27:57.013Z,22.58
2023-02-14T02:28:57.002Z,22.58
2023-02-14T02:29:57.088Z,22.58
2023-02-14T02:30:57.425Z,22.57
2023-02-14T02:31:57.096Z,22.56
2023-02-14T02:32:56.966Z,22.57
2023-02-14T02:33:56.967Z,22.57
2023-02-14T02:34:56.949Z,22.57
2023-02-14T02:35:56.941Z,22.56
2023-02-14T02:36:56.928Z,22.57
2023-02-14T02:37:56.920Z,22.56
2023-02-14T02:38:56.911Z,22.56
2023-02-14T02:39:56.902Z,22.56
2023-02-14T02:40:57.827Z,22.56
2023-02-14T02:41:56.884Z,22.56
2023-02-14T02:42:56.879Z,22.57
2023-02-14T02:43:56.882Z,22.56
2023-02-14T02:44:56.855Z,22.56
2023-02-14T02:45:56.923Z,22.56
2023-02-14T02:46:56.873Z,22.57
2023-02-14T02:47:56.827Z,22.56
2023-02-14T02:48:56.822Z,22.56
2023-02-14T02:49:56.811Z,22.56
2023-02-14T02:50:57.053Z,22.56
2023-02-14T02:51:56.795Z,22.56
2023-02-14T02:52:56.791Z,22.57
2023-02-14T02:53:56.772Z,22.56
2023-02-14T02:54:56.772Z,22.56
2023-02-14T02:55:56.769Z,22.56
2023-02-14T02:56:56.747Z,22.56
2023-02-14T02:57:56.974Z,22.56
2023-02-14T02:58:56.732Z,22.55
2023-02-14T02:59:56.727Z,22.55
2023-02-14T03:00:56.843Z,22.56
2023-02-14T03:01:56.706Z,22.55
2023-02-14T03:02:56.732Z,22.56
2023-02-14T03:03:56.970Z,22.55
2023-02-14T03:04:57.520Z,22.55
2023-02-14T03:05:56.674Z,22.56
2023-02-14T03:06:56.656Z,22.56
2023-02-14T03:07:56.646Z,22.56
2023-02-14T03:08:56.644Z,22.56
2023-02-14T03:09:56.630Z,22.57
2023-02-14T03:10:56.633Z,22.56
2023-02-14T03:11:56.613Z,22.56
2023-02-14T03:12:56.611Z,22.56
2023-02-14T03:13:56.598Z,22.56
2023-02-14T03:14:56.587Z,22.56
2023-02-14T03:15:56.699Z,22.56
2023-02-14T03:16:56.573Z,22.56
2023-02-14T03:17:56.564Z,22.57
2023-02-14T03:18:56.585Z,22.56
2023-02-14T03:19:56.550Z,22.56
2023-02-14T03:20:56.541Z,22.56
2023-02-14T03:21:56.528Z,22.56
2023-02-14T03:22:56.514Z,22.56
2023-02-14T03:23:56.503Z,22.56
2023-02-14T03:24:56.509Z,22.57
2023-02-14T03:25:56.487Z,22.56
2023-02-14T03:26:56.480Z,22.56
2023-02-14T03:27:56.477Z,22.56
2023-02-14T03:28:56.461Z,22.55
2023-02-14T03:29:56.478Z,22.56
2023-02-14T03:30:56.674Z,22.56
2023-02-14T03:31:56.695Z,22.56
2023-02-14T03:32:56.430Z,22.56
2023-02-14T03:33:56.417Z,22.56
2023-02-14T03:34:56.624Z,22.55
2023-02-14T03:35:56.398Z,22.56
2023-02-14T03:36:56.390Z,22.56
2023-02-14T03:37:56.378Z,22.56
2023-02-14T03:38:56.376Z,22.56
2023-02-14T03:39:56.369Z,22.56
2023-02-14T03:40:56.363Z,22.55
2023-02-14T03:41:56.360Z,22.56
2023-02-14T03:42:56.360Z,22.56
2023-02-14T03:43:56.329Z,22.56
2023-02-14T03:44:56.376Z,22.55
2023-02-14T03:45:56.312Z,22.55
2023-02-14T03:46:56.307Z,22.55
2023-02-14T03:47:56.300Z,22.55
2023-02-14T03:48:56.282Z,22.55
2023-02-14T03:49:56.280Z,22.55
2023-02-14T03:50:56.286Z,22.55
2023-02-14T03:51:56.271Z,22.55
2023-02-14T03:52:56.254Z,22.55
2023-02-14T03:53:56.237Z,22.55
2023-02-14T03:54:56.497Z,22.55
2023-02-14T03:55:56.989Z,22.55
2023-02-14T03:56:56.217Z,22.54
2023-02-14T03:57:56.207Z,22.55
2023-02-14T03:58:56.200Z,22.54
2023-02-14T03:59:56.182Z,22.55
2023-02-14T04:00:56.196Z,22.55
2023-02-14T04:01:57.079Z,22.56
2023-02-14T04:02:56.291Z,22.55
2023-02-14T04:03:56.348Z,22.57
2023-02-14T04:04:56.291Z,22.57
2023-02-14T04:05:56.261Z,22.56
2023-02-14T04:06:56.277Z,22.57
2023-02-14T04:07:56.242Z,22.56
2023-02-14T04:08:56.235Z,22.55
2023-02-14T04:09:56.238Z,22.55
2023-02-14T04:10:56.250Z,22.55
2023-02-14T04:11:56.216Z,22.55
2023-02-14T04:12:56.200Z,22.56
2023-02-14T04:13:56.187Z,22.56
2023-02-14T04:14:56.191Z,22.56
2023-02-14T04:15:56.220Z,22.56
2023-02-14T04:16:56.168Z,22.56
2023-02-14T04:17:56.152Z,22.57
2023-02-14T04:18:56.146Z,22.56
2023-02-14T04:19:56.139Z,22.56
2023-02-14T04:20:56.133Z,22.56
2023-02-14T04:21:56.121Z,22.56
2023-02-14T04:22:56.131Z,22.56
2023-02-14T04:23:56.098Z,22.55
2023-02-14T04:24:56.093Z,22.56
2023-02-14T04:25:56.092Z,22.56
2023-02-14T04:26:56.081Z,22.55
2023-02-14T04:27:56.083Z,22.55
2023-02-14T04:28:56.053Z,22.55
2023-02-14T04:29:56.086Z,22.55
2023-02-14T04:30:56.119Z,22.57
2023-02-14T04:31:56.159Z,22.56
2023-02-14T04:32:56.022Z,22.57
2023-02-14T04:33:56.012Z,22.56
2023-02-14T04:34:55.997Z,22.56
2023-02-14T04:35:55.988Z,22.56
2023-02-14T04:36:55.983Z,22.55
2023-02-14T04:37:55.973Z,22.56
2023-02-14T04:38:56.044Z,22.56
2023-02-14T04:39:55.965Z,22.56
2023-02-14T04:40:55.955Z,22.56
2023-02-14T04:41:55.950Z,22.56
2023-02-14T04:42:55.928Z,22.56
2023-02-14T04:43:55.914Z,22.56
2023-02-14T04:44:55.908Z,22.56
2023-02-14T04:45:55.904Z,22.55
2023-02-14T04:46:55.926Z,22.55
2023-02-14T04:47:55.892Z,22.56
2023-02-14T04:48:55.874Z,22.56
2023-02-14T04:49:55.862Z,22.54
2023-02-14T04:50:55.858Z,22.56
2023-02-14T04:51:55.842Z,22.55
2023-02-14T04:52:55.839Z,22.56
2023-02-14T04:53:55.833Z,22.55
2023-02-14T04:54:55.844Z,22.55
2023-02-14T04:55:55.816Z,22.56
2023-02-14T04:56:55.798Z,22.55
2023-02-14T04:57:55.788Z,22.55
2023-02-14T04:58:55.786Z,22.56
2023-02-14T04:59:55.773Z,22.56
2023-02-14T05:00:55.822Z,22.56
2023-02-14T05:01:55.825Z,22.56
2023-02-14T05:02:55.752Z,22.56
2023-02-14T05:03:56.510Z,22.56
2023-02-14T05:04:55.725Z,22.56
2023-02-14T05:05:55.720Z,22.56
2023-02-14T05:06:55.705Z,22.55
2023-02-14T05:07:55.748Z,22.56
2023-02-14T05:08:55.689Z,22.56
2023-02-14T05:09:55.687Z,22.56
2023-02-14T05:10:55.707Z,22.56
2023-02-14T05:11:55.664Z,22.57
2023-02-14T05:12:55.653Z,22.56
2023-02-14T05:13:55.658Z,22.56
2023-02-14T05:14:55.636Z,22.56
2023-02-14T05:15:55.693Z,22.55
2023-02-14T05:16:55.617Z,22.55
2023-02-14T05:17:55.614Z,22.56
2023-02-14T05:18:55.597Z,22.56
2023-02-14T05:19:55.589Z,22.55
2023-02-14T05:20:55.587Z,22.56
2023-02-14T05:21:55.571Z,22.56
2023-02-14T05:22:55.562Z,22.56
2023-02-14T05:23:55.557Z,22.56
2023-02-14T05:24:55.547Z,22.54
2023-02-14T05:25:55.540Z,22.56
2023-02-14T05:26:55.570Z,22.55
2023-02-14T05:27:55.519Z,22.55
2023-02-14T05:28:55.520Z,22.55
2023-02-14T05:29:55.560Z,22.56
2023-02-14T05:30:55.534Z,22.55
2023-02-14T05:31:55.592Z,22.55
2023-02-14T05:32:55.474Z,22.55
2023-02-14T05:33:55.462Z,22.56
2023-02-14T05:34:55.450Z,22.55
2023-02-14T05:35:55.450Z,22.56
2023-02-14T05:36:55.443Z,22.55
2023-02-14T05:37:55.447Z,22.55
2023-02-14T05:38:55.420Z,22.55
2023-02-14T05:39:55.403Z,22.55
2023-02-14T05:40:55.422Z,22.55
2023-02-14T05:41:55.395Z,22.55
2023-02-14T05:42:55.407Z,22.54
2023-02-14T05:43:55.378Z,22.55
2023-02-14T05:44:55.369Z,22.55
2023-02-14T05:45:55.445Z,22.55
2023-02-14T05:46:56.016Z,22.55
2023-02-14T05:47:55.334Z,22.56
2023-02-14T05:48:55.337Z,22.56
2023-02-14T05:49:55.321Z,22.55
2023-02-14T05:50:55.314Z,22.55
2023-02-14T05:51:55.307Z,22.55
2023-02-14T05:52:55.309Z,22.56
2023-02-14T05:53:55.295Z,22.55
2023-02-14T05:54:55.275Z,22.55
2023-02-14T05:55:55.269Z,22.55
2023-02-14T05:56:55.261Z,22.55
2023-02-14T05:57:55.261Z,22.54
2023-02-14T05:58:55.277Z,22.55
2023-02-14T05:59:55.237Z,22.54
2023-02-14T06:00:55.234Z,22.54
2023-02-14T06:01:55.289Z,22.55
2023-02-14T06:02:55.209Z,22.54
2023-02-14T06:03:55.194Z,22.55
2023-02-14T06:05:02.039Z,22.55
2023-02-14T06:06:55.174Z,22.55
2023-02-14T06:07:55.165Z,22.56
2023-02-14T06:08:55.161Z,22.55
2023-02-14T06:09:55.142Z,22.55
2023-02-14T06:10:55.136Z,22.56
2023-02-14T06:11:55.444Z,22.55
2023-02-14T06:12:55.117Z,22.56
2023-02-14T06:13:55.113Z,22.55
2023-02-14T06:14:55.132Z,22.55
2023-02-14T06:15:56.038Z,22.56
2023-02-14T06:16:55.174Z,22.56
2023-02-14T06:17:55.096Z,22.56
2023-02-14T06:18:55.073Z,22.56
2023-02-14T06:19:56.038Z,22.56
2023-02-14T06:20:55.050Z,22.56
2023-02-14T06:21:55.048Z,22.57
2023-02-14T06:22:55.035Z,22.57
2023-02-14T06:23:55.018Z,22.57
2023-02-14T06:24:55.012Z,22.56
2023-02-14T06:25:55.000Z,22.56
2023-02-14T06:26:54.998Z,22.55
2023-02-14T06:27:54.984Z,22.57
2023-02-14T06:28:54.976Z,22.56
2023-02-14T06:29:54.975Z,22.56
2023-02-14T06:30:55.163Z,22.55
2023-02-14T06:31:55.121Z,22.56
2023-02-14T06:32:54.950Z,22.57
2023-02-14T06:33:54.927Z,22.57
2023-02-14T06:34:54.918Z,22.57
2023-02-14T06:35:54.915Z,22.57
2023-02-14T06:36:54.904Z,22.56
2023-02-14T06:37:54.904Z,22.56
2023-02-14T06:38:54.880Z,22.56
2023-02-14T06:39:54.882Z,22.55
2023-02-14T06:40:54.863Z,22.55
2023-02-14T06:41:54.854Z,22.54
2023-02-14T06:42:54.848Z,22.55
2023-02-14T06:43:54.845Z,22.54
2023-02-14T06:44:55.548Z,22.53
2023-02-14T06:45:54.892Z,22.53
2023-02-14T06:46:54.840Z,22.52
2023-02-14T06:47:54.808Z,22.51
2023-02-14T06:48:54.799Z,22.51
2023-02-14T06:49:54.784Z,22.51
2023-02-14T06:50:54.780Z,22.52
2023-02-14T06:51:54.773Z,22.52
2023-02-14T06:52:54.759Z,22.52
2023-02-14T06:53:54.751Z,22.51
2023-02-14T06:54:54.740Z,22.51
2023-02-14T06:55:54.729Z,22.51
2023-02-14T06:56:54.723Z,22.52
2023-02-14T06:57:54.716Z,22.52
2023-02-14T06:58:54.709Z,22.51
2023-02-14T06:59:54.700Z,22.51
2023-02-14T07:00:54.693Z,22.52
2023-02-14T07:01:54.675Z,22.52
2023-02-14T07:02:54.746Z,22.53
2023-02-14T07:03:55.556Z,22.55
2023-02-14T07:04:54.650Z,22.55
2023-02-14T07:05:54.656Z,22.55
2023-02-14T07:06:54.637Z,22.55
2023-02-14T07:07:54.621Z,22.54
2023-02-14T07:08:54.610Z,22.53
2023-02-14T07:09:54.610Z,22.52
2023-02-14T07:10:54.604Z,22.52
2023-02-14T07:11:54.603Z,22.52
2023-02-14T07:12:54.585Z,22.52
2023-02-14T07:13:54.570Z,22.52
2023-02-14T07:14:54.557Z,22.51
2023-02-14T07:15:54.618Z,22.51
2023-02-14T07:16:54.549Z,22.52
2023-02-14T07:17:54.531Z,22.53
2023-02-14T07:18:54.552Z,22.53
2023-02-14T07:19:54.525Z,22.53
2023-02-14T07:20:54.507Z,22.52
2023-02-14T07:22:54.487Z,22.52
2023-02-14T07:23:54.483Z,22.52
2023-02-14T07:24:54.467Z,22.52
2023-02-14T07:25:54.461Z,22.53
2023-02-14T07:26:54.456Z,22.52
2023-02-14T07:27:54.450Z,22.52
2023-02-14T07:28:54.440Z,22.53
2023-02-14T07:29:54.501Z,22.52
2023-02-14T07:30:54.548Z,22.52
2023-02-14T07:31:54.631Z,22.52
2023-02-14T07:32:54.406Z,22.55
2023-02-14T07:33:54.388Z,22.55
2023-02-14T07:34:54.402Z,22.55
2023-02-14T07:35:54.373Z,22.54
2023-02-14T07:36:54.363Z,22.55
2023-02-14T07:37:54.364Z,22.55
2023-02-14T07:38:54.346Z,22.54
2023-02-14T07:39:54.343Z,22.54
2023-02-14T07:40:55.068Z,22.56
2023-02-14T07:41:54.316Z,22.55
2023-02-14T07:42:54.306Z,22.55
2023-02-14T07:43:54.309Z,22.55
2023-02-14T07:44:54.290Z,22.54
2023-02-14T07:45:54.349Z,22.52
2023-02-14T07:46:54.272Z,22.52
2023-02-14T07:47:54.272Z,22.52
2023-02-14T07:48:54.257Z,22.52
2023-02-14T07:49:54.253Z,22.52
2023-02-14T07:50:54.266Z,22.52
2023-02-14T07:51:54.259Z,22.52
2023-02-14T07:52:54.217Z,22.54
2023-02-14T07:53:54.209Z,22.52
2023-02-14T07:54:54.216Z,22.52
2023-02-14T07:55:54.198Z,22.53
2023-02-14T07:56:54.183Z,22.53
2023-02-14T07:57:54.180Z,22.54
2023-02-14T07:58:54.168Z,22.55
2023-02-14T07:59:54.151Z,22.54
2023-02-14T08:00:54.155Z,22.53
2023-02-14T08:01:54.253Z,22.53
2023-02-14T08:02:54.127Z,22.53
2023-02-14T08:03:54.116Z,22.52
2023-02-14T08:04:54.192Z,22.52
2023-02-14T08:05:54.105Z,22.53
2023-02-14T08:06:54.126Z,22.53
2023-02-14T08:07:54.085Z,22.53
2023-02-14T08:08:54.066Z,22.53
2023-02-14T08:09:54.063Z,22.53
2023-02-14T08:10:54.052Z,22.54
2023-02-14T08:11:54.055Z,22.55
2023-02-14T08:12:54.038Z,22.56
2023-02-14T08:13:54.021Z,22.56
2023-02-14T08:14:54.023Z,22.57
2023-02-14T08:15:54.094Z,22.57
2023-02-14T08:16:54.000Z,22.58
2023-02-14T08:17:54.006Z,22.57
2023-02-14T08:18:54.569Z,22.57
2023-02-14T08:19:53.972Z,22.59
2023-02-14T08:20:53.962Z,22.59
2023-02-14T08:21:53.954Z,22.59
2023-02-14T08:22:53.972Z,22.60
2023-02-14T08:23:53.944Z,22.60
2023-02-14T08:24:54.087Z,22.60
2023-02-14T08:25:53.932Z,22.60
2023-02-14T08:26:53.909Z,22.60
2023-02-14T08:27:53.903Z,22.61
2023-02-14T08:28:53.887Z,22.61
2023-02-14T08:29:53.903Z,22.62
2023-02-14T08:30:53.975Z,22.61
2023-02-14T08:31:54.006Z,22.62
2023-02-14T08:32:53.924Z,22.62
2023-02-14T08:33:53.849Z,22.62
2023-02-14T08:34:53.842Z,22.62
2023-02-14T08:35:53.826Z,22.62
2023-02-14T08:36:53.812Z,22.61
2023-02-14T08:37:53.804Z,22.61
2023-02-14T08:38:53.838Z,22.62
2023-02-14T08:39:53.791Z,22.62
2023-02-14T08:40:53.779Z,22.63
2023-02-14T08:41:53.770Z,22.62
2023-02-14T08:42:53.759Z,22.63
2023-02-14T08:43:53.756Z,22.63
2023-02-14T08:44:53.746Z,22.63
2023-02-14T08:45:53.771Z,22.64
2023-02-14T08:46:53.798Z,22.63
2023-02-14T08:47:53.748Z,22.63
2023-02-14T08:48:53.728Z,22.63
2023-02-14T08:49:53.751Z,22.64
2023-02-14T08:50:53.725Z,22.63
2023-02-14T08:51:53.684Z,22.65
2023-02-14T08:52:53.742Z,22.65
2023-02-14T08:53:53.666Z,22.66
2023-02-14T08:54:53.711Z,22.65
2023-02-14T08:55:53.654Z,22.66
2023-02-14T08:56:53.668Z,22.64
2023-02-14T08:57:53.663Z,22.65
2023-02-14T08:58:53.616Z,22.65
2023-02-14T08:59:53.608Z,22.65
2023-02-14T09:00:53.673Z,22.66
2023-02-14T09:01:53.598Z,22.65
2023-02-14T09:02:53.579Z,22.65
2023-02-14T09:03:53.766Z,22.65
2023-02-14T09:04:53.562Z,22.64
2023-02-14T09:05:53.561Z,22.65
2023-02-14T09:06:53.541Z,22.65
2023-02-14T09:07:53.534Z,22.67
2023-02-14T09:08:53.583Z,22.67
2023-02-14T09:09:53.534Z,22.66
2023-02-14T09:10:53.605Z,22.66
2023-02-14T09:11:53.504Z,22.66
2023-02-14T09:12:53.489Z,22.66
2023-02-14T09:13:53.553Z,22.66
2023-02-14T09:14:53.537Z,22.66
2023-02-14T09:15:53.465Z,22.67
2023-02-14T09:16:53.537Z,22.66
2023-02-14T09:17:53.570Z,22.66
2023-02-14T09:18:53.459Z,22.67
2023-02-14T09:19:53.438Z,22.67
2023-02-14T09:20:53.425Z,22.68
2023-02-14T09:21:53.418Z,22.68
2023-02-14T09:22:53.403Z,22.68
2023-02-14T09:23:53.391Z,22.67
2023-02-14T09:24:53.384Z,22.67
2023-02-14T09:25:53.377Z,22.67
2023-02-14T09:26:53.405Z,22.67
2023-02-14T09:27:53.359Z,22.68
2023-02-14T09:28:53.360Z,22.68
2023-02-14T09:29:53.370Z,22.68
2023-02-14T09:30:54.544Z,22.68
2023-02-14T09:31:53.453Z,22.68
2023-02-14T09:32:53.321Z,22.68
2023-02-14T09:33:53.309Z,22.69
2023-02-14T09:34:53.292Z,22.69
2023-02-14T09:35:53.284Z,22.69
2023-02-14T09:36:53.279Z,22.69
2023-02-14T09:37:53.269Z,22.69
2023-02-14T09:38:53.258Z,22.69
2023-02-14T09:39:53.254Z,22.71
2023-02-14T09:40:53.241Z,22.72
2023-02-14T09:41:53.233Z,22.72
2023-02-14T09:42:53.251Z,22.72
2023-02-14T09:43:53.219Z,22.72
2023-02-14T09:44:53.225Z,22.72
2023-02-14T09:45:53.250Z,22.73
2023-02-14T09:46:53.184Z,22.73
2023-02-14T09:47:53.177Z,22.74
2023-02-14T09:48:53.265Z,22.72
2023-02-14T09:49:53.236Z,22.72
2023-02-14T09:50:53.156Z,22.72
2023-02-14T09:51:53.136Z,22.72
2023-02-14T09:52:53.136Z,22.73
2023-02-14T09:53:53.122Z,22.74
2023-02-14T09:54:53.115Z,22.73
2023-02-14T09:55:53.113Z,22.73
2023-02-14T09:56:53.092Z,22.72
2023-02-14T09:57:53.273Z,22.73
2023-02-14T09:58:53.105Z,22.72
2023-02-14T09:59:53.063Z,22.72
2023-02-14T10:00:53.094Z,22.73
2023-02-14T10:01:53.154Z,22.73
2023-02-14T10:02:53.041Z,22.73
2023-02-14T10:03:53.027Z,22.73
2023-02-14T10:04:53.023Z,22.73
2023-02-14T10:05:53.020Z,22.73
2023-02-14T10:06:53.026Z,22.72
2023-02-14T10:07:53.012Z,22.73
2023-02-14T10:08:52.986Z,22.72
2023-02-14T10:09:52.979Z,22.73
2023-02-14T10:10:52.982Z,22.74
2023-02-14T10:11:52.954Z,22.74
2023-02-14T10:12:52.960Z,22.75
2023-02-14T10:13:52.981Z,22.75
2023-02-14T10:14:52.989Z,22.75
2023-02-14T10:15:52.926Z,22.75
2023-02-14T10:16:52.945Z,22.76
2023-02-14T10:17:52.933Z,22.76
2023-02-14T10:18:52.913Z,22.75
2023-02-14T10:19:52.884Z,22.76
2023-02-14T10:20:52.879Z,22.75
2023-02-14T10:21:52.878Z,22.75
2023-02-14T10:22:52.859Z,22.76
2023-02-14T10:23:52.854Z,22.76
2023-02-14T10:24:52.844Z,22.77
2023-02-14T10:25:52.837Z,22.77
2023-02-14T10:26:52.827Z,22.77
2023-02-14T10:27:52.855Z,22.77
2023-02-14T10:28:53.619Z,22.77
2023-02-14T10:29:52.851Z,22.77
2023-02-14T10:30:52.804Z,22.78
2023-02-14T10:31:52.828Z,22.77
2023-02-14T10:32:52.778Z,22.77
2023-02-14T10:33:52.774Z,22.78
2023-02-14T10:34:52.750Z,22.78
2023-02-14T10:35:52.809Z,22.77
2023-02-14T10:36:52.740Z,22.77
2023-02-14T10:37:52.737Z,22.77
2023-02-14T10:38:53.625Z,22.77
2023-02-14T10:39:53.119Z,22.77
2023-02-14T10:40:52.693Z,22.76
2023-02-14T10:41:53.631Z,22.76
2023-02-14T10:42:53.624Z,22.76
2023-02-14T10:43:52.698Z,22.76
2023-02-14T10:44:52.664Z,22.76
2023-02-14T10:45:52.713Z,22.77
2023-02-14T10:46:52.651Z,22.75
2023-02-14T10:47:52.633Z,22.76
2023-02-14T10:48:52.626Z,22.77
2023-02-14T10:49:52.613Z,22.78
2023-02-14T10:50:52.615Z,22.78
2023-02-14T10:51:53.125Z,22.78
2023-02-14T10:52:52.590Z,22.78
2023-02-14T10:53:52.626Z,22.78
2023-02-14T10:54:52.574Z,22.78
2023-02-14T10:55:52.581Z,22.78
2023-02-14T10:56:52.555Z,22.79
2023-02-14T10:57:52.543Z,22.79
2023-02-14T10:58:52.541Z,22.79
2023-02-14T10:59:52.552Z,22.79
2023-02-14T11:00:52.595Z,22.79
2023-02-14T11:01:52.517Z,22.78
2023-02-14T11:02:52.533Z,22.79
2023-02-14T11:03:52.586Z,22.79
2023-02-14T11:04:52.486Z,22.79
2023-02-14T11:05:52.481Z,22.79
2023-02-14T11:06:52.468Z,22.79
2023-02-14T11:07:52.476Z,22.80
2023-02-14T11:08:52.457Z,22.80
2023-02-14T11:09:52.445Z,22.79
2023-02-14T11:10:52.432Z,22.79
2023-02-14T11:11:52.423Z,22.80
2023-02-14T11:12:52.417Z,22.80
2023-02-14T11:14:52.400Z,22.79
2023-02-14T11:15:52.411Z,22.78
2023-02-14T11:16:52.448Z,22.78
2023-02-14T11:17:52.364Z,22.80
2023-02-14T11:18:52.362Z,22.80
2023-02-14T11:19:52.347Z,22.80
2023-02-14T11:21:52.368Z,22.80
2023-02-14T11:22:53.132Z,22.81
2023-02-14T11:23:52.342Z,22.81
2023-02-14T11:24:52.301Z,22.79
2023-02-14T11:25:52.303Z,22.80
2023-02-14T11:26:52.284Z,22.81
2023-02-14T11:27:52.283Z,22.81
2023-02-14T11:28:52.276Z,22.80
2023-02-14T11:29:52.413Z,22.80
2023-02-14T11:30:52.429Z,22.80
2023-02-14T11:31:52.507Z,22.80
2023-02-14T11:32:52.229Z,22.81
2023-02-14T11:33:52.221Z,22.79
2023-02-14T11:34:52.218Z,22.80
2023-02-14T11:35:52.203Z,22.80
2023-02-14T11:36:52.200Z,22.80
2023-02-14T11:37:52.187Z,22.81
2023-02-14T11:38:52.180Z,22.81
2023-02-14T11:39:52.166Z,22.82
2023-02-14T11:40:52.161Z,22.82
2023-02-14T11:41:52.151Z,22.82
2023-02-14T11:43:02.246Z,22.83
2023-02-14T11:43:52.136Z,22.82
2023-02-14T11:44:52.129Z,22.82
2023-02-14T11:45:52.161Z,22.82
2023-02-14T11:46:53.965Z,22.82
2023-02-14T11:47:52.134Z,22.82
2023-02-14T11:48:52.089Z,22.82
2023-02-14T11:49:52.081Z,22.82
2023-02-14T11:50:52.070Z,22.83
2023-02-14T11:51:52.072Z,22.82
2023-02-14T11:52:52.053Z,22.83
2023-02-14T11:53:52.046Z,22.82
2023-02-14T11:54:52.037Z,22.83
2023-02-14T11:55:52.027Z,22.83
2023-02-14T11:56:52.021Z,22.83
2023-02-14T11:57:52.009Z,22.83
2023-02-14T11:58:52.001Z,22.83
2023-02-14T11:59:52.005Z,22.83
2023-02-14T12:00:51.985Z,22.82
2023-02-14T12:01:51.971Z,22.83
2023-02-14T12:02:52.026Z,22.83
2023-02-14T12:03:52.037Z,22.83
2023-02-14T12:04:51.943Z,22.83
2023-02-14T12:05:51.939Z,22.83
2023-02-14T12:06:51.930Z,22.83
2023-02-14T12:07:51.926Z,22.84
2023-02-14T12:08:51.911Z,22.84
2023-02-14T12:09:52.654Z,22.83
2023-02-14T12:10:51.896Z,22.83
2023-02-14T12:11:52.655Z,22.83
2023-02-14T12:12:52.159Z,22.83
2023-02-14T12:13:51.869Z,22.82
2023-02-14T12:14:51.860Z,22.83
2023-02-14T12:15:51.894Z,22.83
2023-02-14T12:16:51.840Z,22.83
2023-02-14T12:17:51.833Z,22.83
2023-02-14T12:18:51.823Z,22.82
2023-02-14T12:19:51.839Z,22.83
2023-02-14T12:20:51.802Z,22.83
2023-02-14T12:21:51.796Z,22.83
2023-02-14T12:22:51.790Z,22.83
2023-02-14T12:24:51.775Z,22.83
2023-02-14T12:25:51.776Z,22.83
2023-02-14T12:26:52.166Z,22.83
2023-02-14T12:27:51.744Z,22.83
2023-02-14T12:28:51.730Z,22.83
2023-02-14T12:29:51.822Z,22.83
2023-02-14T12:30:51.825Z,22.84
2023-02-14T12:31:51.855Z,22.84
2023-02-14T12:33:51.689Z,22.84
2023-02-14T12:34:51.673Z,22.84
2023-02-14T12:35:51.699Z,22.84
2023-02-14T12:36:51.657Z,22.84
2023-02-14T12:38:02.695Z,22.85
2023-02-14T12:38:51.641Z,22.84
2023-02-14T12:39:51.636Z,22.83
2023-02-14T12:40:51.618Z,22.84
2023-02-14T12:41:51.621Z,22.85
2023-02-14T12:42:52.155Z,22.84
2023-02-14T12:43:51.592Z,22.83
2023-02-14T12:44:51.589Z,22.83
2023-02-14T12:45:51.574Z,22.83
2023-02-14T12:46:51.653Z,22.84
2023-02-14T12:47:51.560Z,22.84
2023-02-14T12:48:51.555Z,22.83
2023-02-14T12:49:51.541Z,22.83
2023-02-14T12:50:51.551Z,22.84
2023-02-14T12:51:51.550Z,22.85
2023-02-14T12:52:51.525Z,22.85
2023-02-14T12:53:51.511Z,22.85
2023-02-14T12:54:52.170Z,22.85
2023-02-14T12:55:51.486Z,22.85
2023-02-14T12:56:51.473Z,22.85
2023-02-14T12:57:51.475Z,22.85
2023-02-14T12:58:51.501Z,22.84
2023-02-14T12:59:51.451Z,22.85
2023-02-14T13:00:51.453Z,22.86
2023-02-14T13:01:51.493Z,22.84
2023-02-14T13:02:51.476Z,22.84
2023-02-14T13:03:51.440Z,22.83
2023-02-14T13:04:51.407Z,22.84
2023-02-14T13:05:51.408Z,22.84
2023-02-14T13:06:51.393Z,22.84
2023-02-14T13:07:51.403Z,22.84
2023-02-14T13:08:51.381Z,22.83
2023-02-14T13:09:51.677Z,22.82
2023-02-14T13:10:51.370Z,22.83
2023-02-14T13:11:51.344Z,22.83
2023-02-14T13:12:51.334Z,22.83
2023-02-14T13:13:52.170Z,22.84
2023-02-14T13:14:51.327Z,22.84
2023-02-14T13:15:53.057Z,22.85
2023-02-14T13:16:51.309Z,22.85
2023-02-14T13:17:51.289Z,22.85
2023-02-14T13:18:51.278Z,22.84
2023-02-14T13:19:51.278Z,22.84
2023-02-14T13:20:51.263Z,22.85
2023-02-14T13:21:51.325Z,22.85
2023-02-14T13:22:51.253Z,22.84
2023-02-14T13:23:52.211Z,22.83
2023-02-14T13:24:51.237Z,22.83
2023-02-14T13:25:51.220Z,22.83
2023-02-14T13:26:51.205Z,22.84
2023-02-14T13:27:51.205Z,22.84
2023-02-14T13:28:51.188Z,22.84
2023-02-14T13:29:51.270Z,22.84
2023-02-14T13:30:51.216Z,22.83
2023-02-14T13:31:51.294Z,22.83
2023-02-14T13:32:51.148Z,22.84
2023-02-14T13:33:51.144Z,22.83
2023-02-14T13:34:51.134Z,22.83
2023-02-14T13:35:51.125Z,22.83
2023-02-14T13:36:51.129Z,22.83
2023-02-14T13:37:51.110Z,22.81
2023-02-14T13:38:51.101Z,22.82
2023-02-14T13:39:51.114Z,22.83
2023-02-14T13:40:51.080Z,22.83
2023-02-14T13:41:51.075Z,22.82
2023-02-14T13:42:51.698Z,22.84
2023-02-14T13:43:51.058Z,22.83
2023-02-14T13:44:51.045Z,22.83
2023-02-14T13:45:51.036Z,22.83
2023-02-14T13:46:51.096Z,22.83
2023-02-14T13:47:51.020Z,22.82
2023-02-14T13:48:51.009Z,22.82
2023-02-14T13:49:51.000Z,22.81
2023-02-14T13:50:50.989Z,22.82
2023-02-14T13:51:50.980Z,22.82
2023-02-14T13:52:50.981Z,22.82